Terminal Aerodrome Forecast
Issued by NWS

Home | Current Version | Previous Version | Text Only | Print | Product List | Glossary On
Versions: 1 2 3 4 5 6 7 8 9 10 11 12 13 14
000
FTUS43 KPAH 281700 RRA
TAFCGI
TAF
KCGI 281740Z 2818/2918 19014G21KT P6SM SKC
     FM290000 19010KT P6SM FEW150
     FM290900 19009KT P6SM BKN020 WS017/22050KT
     FM291500 20015G22KT 5SM -DZ BR BKN012=

USA.gov is the U.S. government's official web portal to all federal, state and local government web resources and services.